createdAt,value
2018-07-28T00:00:23.876Z,8.28
2018-07-28T00:02:54.665Z,7.58
2018-07-28T00:05:25.643Z,7.17
2018-07-28T00:07:56.648Z,7.17
2018-07-28T00:10:27.746Z,7.47
2018-07-28T00:12:58.680Z,7.53
2018-07-28T00:15:29.613Z,7.30
2018-07-28T00:18:00.565Z,8.23
2018-07-28T00:20:31.596Z,8.45
2018-07-28T00:23:02.870Z,7.83
2018-07-28T00:25:38.691Z,7.78
2018-07-28T00:28:09.001Z,7.62
2018-07-28T00:30:38.924Z,7.43
2018-07-28T00:33:08.780Z,8.23
2018-07-28T00:35:38.748Z,7.95
2018-07-28T00:38:08.634Z,7.77
2018-07-28T00:40:39.636Z,7.00
2018-07-28T00:43:10.616Z,6.78
2018-07-28T00:45:43.002Z,6.42
2018-07-28T00:48:12.834Z,6.50
2018-07-28T00:50:44.040Z,5.78
2018-07-28T00:53:14.830Z,6.50
2018-07-28T00:55:48.643Z,6.00
2018-07-28T00:58:18.541Z,6.90
2018-07-28T01:00:48.593Z,6.80
2018-07-28T01:03:18.486Z,6.30
2018-07-28T01:05:49.865Z,6.84
2018-07-28T01:08:20.673Z,6.03
2018-07-28T01:10:51.676Z,6.50
2018-07-28T01:13:22.526Z,7.20
2018-07-28T01:15:55.030Z,6.80
2018-07-28T01:18:24.876Z,6.87
2018-07-28T01:20:55.845Z,7.40
2018-07-28T01:23:26.698Z,7.95
2018-07-28T01:25:57.589Z,7.72
2018-07-28T01:28:29.930Z,7.26
2018-07-28T01:30:59.964Z,7.50
2018-07-28T01:33:30.739Z,7.72
2018-07-28T01:36:02.681Z,7.83
2018-07-28T01:38:32.847Z,7.10
2018-07-28T01:41:03.742Z,7.42
2018-07-28T01:43:34.610Z,7.62
2018-07-28T01:46:05.629Z,7.47
2018-07-28T01:48:36.945Z,7.30
2018-07-28T01:51:07.872Z,7.00
2018-07-28T01:53:38.687Z,7.50
2018-07-28T01:56:09.758Z,7.12
2018-07-28T01:58:40.733Z,7.53
2018-07-28T02:01:11.616Z,7.83
2018-07-28T02:03:42.867Z,7.74
2018-07-28T02:06:13.751Z,7.03
2018-07-28T02:08:44.679Z,6.83
2018-07-28T02:11:15.617Z,6.25
2018-07-28T02:13:46.602Z,5.60
2018-07-28T02:16:19.064Z,5.70
2018-07-28T02:18:48.918Z,6.00
2018-07-28T02:21:19.803Z,4.90
2018-07-28T02:23:50.648Z,4.67
2018-07-28T02:26:21.709Z,5.40
2018-07-28T02:28:53.686Z,4.75
2018-07-28T02:31:23.840Z,4.77
2018-07-28T02:33:53.778Z,5.30
2018-07-28T02:36:24.661Z,4.92
2018-07-28T02:38:56.522Z,5.53
2018-07-28T02:41:26.490Z,6.40
2018-07-28T02:43:57.952Z,5.36
2018-07-28T02:46:28.805Z,4.92
2018-07-28T02:48:59.631Z,4.60
2018-07-28T02:51:31.051Z,5.34
2018-07-28T02:54:01.742Z,5.50
2018-07-28T02:56:32.626Z,5.47
2018-07-28T02:59:04.540Z,6.30
2018-07-28T03:01:35.059Z,5.14
2018-07-28T03:04:05.881Z,5.40
2018-07-28T03:06:37.639Z,5.17
2018-07-28T03:09:12.039Z,5.43
2018-07-28T03:11:42.532Z,5.00
2018-07-28T03:14:12.328Z,5.33
2018-07-28T03:16:42.656Z,5.30
2018-07-28T03:19:12.514Z,4.83
2018-07-28T03:21:42.585Z,4.87
2018-07-28T03:24:12.478Z,4.65
2018-07-28T03:26:43.893Z,4.70
2018-07-28T03:29:14.644Z,4.60
2018-07-28T03:31:46.328Z,4.74
2018-07-28T03:34:16.851Z,5.48
2018-07-28T03:36:47.689Z,4.70
2018-07-28T03:39:19.981Z,4.72
2018-07-28T03:41:49.857Z,5.60
2018-07-28T03:44:20.740Z,5.15
2018-07-28T03:46:51.606Z,5.10
2018-07-28T03:49:22.907Z,4.98
2018-07-28T03:51:54.191Z,5.72
2018-07-28T03:54:24.982Z,5.55
2018-07-28T03:56:55.863Z,4.97
2018-07-28T03:59:26.675Z,5.25
2018-07-28T04:01:57.615Z,5.12
2018-07-28T04:04:29.507Z,5.28
2018-07-28T04:07:00.033Z,5.34
2018-07-28T04:09:30.723Z,5.50
2018-07-28T04:12:03.137Z,6.00
2018-07-28T04:14:32.945Z,5.57
2018-07-28T04:17:03.910Z,5.40
2018-07-28T04:19:34.701Z,6.15
2018-07-28T04:22:05.706Z,6.03
2018-07-28T04:24:36.612Z,5.87
2018-07-28T04:27:07.586Z,7.28
2018-07-28T04:29:38.890Z,7.80
2018-07-28T04:32:10.215Z,6.88
2018-07-28T04:34:40.850Z,6.75
2018-07-28T04:37:11.792Z,7.80
2018-07-28T04:39:42.785Z,8.05
2018-07-28T04:42:13.689Z,9.35
2018-07-28T04:44:44.513Z,8.58
2018-07-28T04:47:16.096Z,8.70
2018-07-28T04:49:47.283Z,8.60
2018-07-28T04:52:17.880Z,9.68
2018-07-28T04:54:48.713Z,9.60
2018-07-28T04:57:18.615Z,10.10
2018-07-28T04:59:49.554Z,9.30
2018-07-28T05:02:20.939Z,10.42
2018-07-28T05:04:51.777Z,10.10
2018-07-28T05:07:22.737Z,9.95
2018-07-28T05:09:54.054Z,11.12
2018-07-28T05:12:25.313Z,11.43
2018-07-28T05:14:55.899Z,13.83
2018-07-28T05:17:26.820Z,12.20
2018-07-28T05:19:57.719Z,11.73
2018-07-28T05:22:28.742Z,13.10
2018-07-28T05:24:58.657Z,13.90
2018-07-28T05:27:30.597Z,12.65
2018-07-28T05:30:00.517Z,13.45
2018-07-28T05:32:31.905Z,13.28
2018-07-28T05:35:02.764Z,12.65
2018-07-28T05:37:33.678Z,13.40
2018-07-28T05:40:04.771Z,16.10
2018-07-28T05:42:35.822Z,15.25
2018-07-28T05:45:07.348Z,14.60
2018-07-28T05:47:37.869Z,15.00
2018-07-28T05:50:09.881Z,19.12
2018-07-28T05:52:40.026Z,17.77
2018-07-28T05:55:10.872Z,17.37
2018-07-28T05:57:41.746Z,16.02
2018-07-28T06:00:12.795Z,18.30
2018-07-28T06:02:43.899Z,16.95
2018-07-28T06:05:15.000Z,17.37
2018-07-28T06:07:45.979Z,16.70
2018-07-28T06:10:16.947Z,16.42
2018-07-28T06:12:47.917Z,18.12
2018-07-28T06:15:18.760Z,18.40
2018-07-28T06:17:48.674Z,17.70
2018-07-28T06:20:19.615Z,17.12
2018-07-28T06:22:50.976Z,17.84
2018-07-28T06:25:21.852Z,18.57
2018-07-28T06:27:52.754Z,17.25
2018-07-28T06:30:23.838Z,18.02
2018-07-28T06:32:54.826Z,17.77
2018-07-28T06:35:25.738Z,17.37
2018-07-28T06:37:56.687Z,18.12
2018-07-28T06:40:27.669Z,17.00
2018-07-28T06:42:58.636Z,16.90
2018-07-28T06:45:28.474Z,15.40
2018-07-28T06:47:59.946Z,15.90
2018-07-28T06:50:30.813Z,16.17
2018-07-28T06:53:02.130Z,16.52
2018-07-28T06:55:32.882Z,15.58
2018-07-28T06:58:03.798Z,15.08
2018-07-28T07:00:34.808Z,13.90
2018-07-28T07:03:05.818Z,14.47
2018-07-28T07:05:36.653Z,14.18
2018-07-28T07:08:07.633Z,14.07
2018-07-28T07:10:38.583Z,13.88
2018-07-28T07:13:09.715Z,13.48
2018-07-28T07:15:40.551Z,12.18
2018-07-28T07:18:12.144Z,12.62
2018-07-28T07:20:42.841Z,12.25
2018-07-28T07:23:14.034Z,11.43
2018-07-28T07:25:44.746Z,11.10
2018-07-28T07:28:15.976Z,11.22
2018-07-28T07:30:46.845Z,11.28
2018-07-28T07:33:17.937Z,10.80
2018-07-28T07:35:48.724Z,10.88
2018-07-28T07:38:19.722Z,9.95
2018-07-28T07:40:50.643Z,9.78
2018-07-28T07:43:22.578Z,9.80
2018-07-28T07:45:52.966Z,10.03
2018-07-28T07:48:23.865Z,10.35
2018-07-28T07:50:54.700Z,9.38
2018-07-28T07:53:25.683Z,8.83
2018-07-28T07:55:56.564Z,8.23
2018-07-28T07:58:28.077Z,9.04
2018-07-28T08:00:58.780Z,8.33
2018-07-28T08:03:29.675Z,8.35
2018-07-28T08:06:00.590Z,9.13
2018-07-28T08:08:31.940Z,8.68
2018-07-28T08:11:03.083Z,8.45
2018-07-28T08:13:33.861Z,8.63
2018-07-28T08:16:04.733Z,8.93
2018-07-28T08:18:35.713Z,9.70
2018-07-28T08:21:06.748Z,8.63
2018-07-28T08:23:38.306Z,9.05
2018-07-28T08:26:08.918Z,8.73
2018-07-28T08:28:40.066Z,8.53
2018-07-28T08:31:10.702Z,8.50
2018-07-28T08:33:41.615Z,7.72
2018-07-28T08:36:12.591Z,8.48
2018-07-28T08:38:44.311Z,7.80
2018-07-28T08:41:14.848Z,8.72
2018-07-28T08:43:45.964Z,8.00
2018-07-28T08:46:17.108Z,8.18
2018-07-28T08:48:48.218Z,7.85
2018-07-28T08:51:18.809Z,7.32
2018-07-28T08:53:49.673Z,7.05
2018-07-28T08:56:20.617Z,7.75
2018-07-28T08:58:53.634Z,7.64
2018-07-28T09:01:23.609Z,7.37
2018-07-28T09:03:53.696Z,7.20
2018-07-28T09:06:24.773Z,7.45
2018-07-28T09:08:55.709Z,7.00
2018-07-28T09:11:26.571Z,7.17
2018-07-28T09:13:57.941Z,7.78
2018-07-28T09:16:28.816Z,6.67
2018-07-28T09:18:59.873Z,6.90
2018-07-28T09:21:31.080Z,6.62
2018-07-28T09:24:01.954Z,7.17
2018-07-28T09:26:32.774Z,7.05
2018-07-28T09:29:03.709Z,6.83
2018-07-28T09:31:34.431Z,6.30
2018-07-28T09:34:04.952Z,6.32
2018-07-28T09:36:36.192Z,6.37
2018-07-28T09:39:10.113Z,6.15
2018-07-28T09:41:39.981Z,6.30
2018-07-28T09:44:09.838Z,6.22
2018-07-28T09:46:39.710Z,6.87
2018-07-28T09:49:10.743Z,6.00
2018-07-28T09:51:41.602Z,5.95
2018-07-28T09:54:23.373Z,6.12
2018-07-28T09:56:53.140Z,6.37
2018-07-28T09:59:24.798Z,6.83
2018-07-28T10:01:54.712Z,6.73
2018-07-28T10:04:24.670Z,6.60
2018-07-28T10:06:54.596Z,6.20
2018-07-28T10:09:24.501Z,6.00
2018-07-28T10:11:54.351Z,6.43
2018-07-28T10:14:24.333Z,5.47
2018-07-28T10:16:54.261Z,5.80
2018-07-28T10:19:24.685Z,5.50
2018-07-28T10:21:54.499Z,5.67
2018-07-28T10:24:25.336Z,6.50
2018-07-28T10:26:55.304Z,5.70
2018-07-28T10:29:25.227Z,5.80
2018-07-28T10:31:55.148Z,5.40
2018-07-28T10:34:25.805Z,4.87
2018-07-28T10:36:56.732Z,5.60
2018-07-28T10:39:27.538Z,5.20
2018-07-28T10:41:59.601Z,5.60
2018-07-28T10:44:32.168Z,5.22
2018-07-28T10:47:02.476Z,5.17
2018-07-28T10:49:32.431Z,5.00
2018-07-28T10:52:20.903Z,5.24
2018-07-28T10:54:51.669Z,4.83
2018-07-28T10:57:24.286Z,4.80
2018-07-28T10:59:55.332Z,4.77
2018-07-28T11:02:25.384Z,4.73
2018-07-28T11:04:55.226Z,4.70
2018-07-28T11:07:25.108Z,4.60
2018-07-28T11:09:55.358Z,5.10
2018-07-28T11:12:25.706Z,4.78
2018-07-28T11:14:55.857Z,4.77
2018-07-28T11:17:26.362Z,5.00
2018-07-28T11:19:56.581Z,4.97
2018-07-28T11:22:26.459Z,4.80
2018-07-28T11:24:56.564Z,4.70
2018-07-28T11:27:26.409Z,5.07
2018-07-28T11:29:56.928Z,4.83
2018-07-28T11:32:37.244Z,5.12
2018-07-28T11:48:16.481Z,4.80
2018-07-28T11:50:46.334Z,4.60
2018-07-28T11:53:16.261Z,4.97
2018-07-28T11:55:46.164Z,5.00
2018-07-28T11:58:16.562Z,5.17
2018-07-28T12:00:46.788Z,5.07
2018-07-28T12:03:16.952Z,4.93
2018-07-28T12:05:46.818Z,5.07
2018-07-28T12:08:16.898Z,4.80
2018-07-28T12:10:46.844Z,4.87
2018-07-28T12:13:16.902Z,5.43
2018-07-28T12:15:46.769Z,5.57
2018-07-28T12:18:16.916Z,5.30
2018-07-28T12:20:46.970Z,5.20
2018-07-28T12:23:16.792Z,4.97
2018-07-28T12:25:46.911Z,4.63
2018-07-28T12:28:16.830Z,5.00
2018-07-28T12:30:47.453Z,5.10
2018-07-28T12:33:17.289Z,5.10
2018-07-28T12:35:47.097Z,4.70
2018-07-28T12:38:16.980Z,5.43
2018-07-28T12:40:46.834Z,5.13
2018-07-28T12:43:16.941Z,5.03
2018-07-28T12:45:46.801Z,4.93
2018-07-28T12:48:16.897Z,4.90
2018-07-28T12:50:46.805Z,5.50
2018-07-28T12:53:16.878Z,5.03
2018-07-28T12:55:46.837Z,5.07
2018-07-28T12:58:17.740Z,4.47
2018-07-28T13:00:47.913Z,4.50
2018-07-28T13:03:17.869Z,4.43
2018-07-28T13:05:47.790Z,4.33
2018-07-28T13:08:17.802Z,4.37
2018-07-28T13:10:47.788Z,4.20
2018-07-28T13:13:17.820Z,4.43
2018-07-28T13:15:47.800Z,4.53
2018-07-28T13:18:17.821Z,3.80
2018-07-28T13:20:47.890Z,3.73
2018-07-28T13:23:18.092Z,3.25
2018-07-28T13:25:48.160Z,2.95
2018-07-28T13:28:17.998Z,3.50
2018-07-28T13:30:47.989Z,3.23
2018-07-28T13:33:17.933Z,3.67
2018-07-28T13:35:48.338Z,3.58
2018-07-28T13:38:18.269Z,3.10
2018-07-28T13:40:48.279Z,3.70
2018-07-28T13:43:18.264Z,3.57
2018-07-28T13:45:48.373Z,3.40
2018-07-28T13:48:18.216Z,3.73
2018-07-28T13:50:48.549Z,3.98
2018-07-28T13:53:18.986Z,3.37
2018-07-28T13:55:48.802Z,3.60
2018-07-28T13:58:19.613Z,3.40
2018-07-28T14:00:49.488Z,3.57
2018-07-28T14:03:19.440Z,3.27
2018-07-28T14:05:49.315Z,3.90
2018-07-28T14:08:19.823Z,3.50
2018-07-28T14:10:50.574Z,3.67
2018-07-28T14:13:21.563Z,3.45
2018-07-28T14:15:52.685Z,3.60
2018-07-28T14:18:23.746Z,4.05
2018-07-28T14:20:54.898Z,3.92
2018-07-28T14:23:25.890Z,3.60
2018-07-28T14:25:56.965Z,3.80
2018-07-28T14:28:28.638Z,3.92
2018-07-28T14:30:58.677Z,4.30
2018-07-28T14:33:29.558Z,4.20
2018-07-28T14:36:00.580Z,3.90
2018-07-28T14:38:31.593Z,4.53
2018-07-28T14:41:04.181Z,3.80
2018-07-28T14:43:34.172Z,3.40
2018-07-28T14:46:04.871Z,4.15
2018-07-28T14:48:35.904Z,3.87
2018-07-28T14:51:06.838Z,4.20
2018-07-28T14:53:37.814Z,3.42
2018-07-28T14:56:08.652Z,3.55
2018-07-28T14:58:39.954Z,3.60
2018-07-28T15:01:10.705Z,3.98
2018-07-28T15:03:41.565Z,4.12
2018-07-28T15:06:12.561Z,3.58
2018-07-28T15:08:43.550Z,3.83
2018-07-28T15:11:15.485Z,4.40
2018-07-28T15:13:45.477Z,4.25
2018-07-28T15:16:17.510Z,3.95
2018-07-28T15:18:49.019Z,3.94
2018-07-28T15:21:18.861Z,4.20
2018-07-28T15:23:50.710Z,4.78
2018-07-28T15:26:20.552Z,4.60
2018-07-28T15:28:53.118Z,4.22
2018-07-28T15:31:23.673Z,4.17
2018-07-28T15:33:53.524Z,4.47
2018-07-28T15:36:24.023Z,4.14
2018-07-28T15:38:54.756Z,4.42
2018-07-28T15:41:25.610Z,4.37
2018-07-28T15:43:56.629Z,4.78
2018-07-28T15:46:27.869Z,5.25
2018-07-28T15:48:57.822Z,4.87
2018-07-28T15:51:28.589Z,5.62
2018-07-28T15:53:59.706Z,5.17
2018-07-28T15:56:30.605Z,4.37
2018-07-28T15:59:01.940Z,4.47
2018-07-28T16:01:32.746Z,3.98
2018-07-28T16:04:03.590Z,5.08
2018-07-28T16:06:34.594Z,4.87
2018-07-28T16:09:08.693Z,5.00
2018-07-28T16:11:38.535Z,5.87
2018-07-28T16:14:08.491Z,5.40
2018-07-28T16:16:38.902Z,4.44
2018-07-28T16:19:09.696Z,4.80
2018-07-28T16:21:41.164Z,4.78
2018-07-28T16:24:11.852Z,5.50
2018-07-28T16:26:42.712Z,4.90
2018-07-28T16:29:13.680Z,4.83
2018-07-28T16:31:45.253Z,5.12
2018-07-28T16:34:15.991Z,4.72
2018-07-28T16:36:46.885Z,4.35
2018-07-28T16:39:17.757Z,4.60
2018-07-28T16:41:48.626Z,5.12
2018-07-28T16:44:19.558Z,5.08
2018-07-28T16:46:50.594Z,4.62
2018-07-28T16:49:21.545Z,4.53
2018-07-28T16:51:52.573Z,5.20
2018-07-28T16:54:23.937Z,4.74
2018-07-28T16:56:55.667Z,4.75
2018-07-28T16:59:25.577Z,5.25
2018-07-28T17:01:56.488Z,5.25
2018-07-28T17:04:28.080Z,5.54
2018-07-28T17:06:58.727Z,6.05
2018-07-28T17:09:30.157Z,5.90
2018-07-28T17:11:59.989Z,5.57
2018-07-28T17:14:30.882Z,5.85
2018-07-28T17:17:01.665Z,5.67
2018-07-28T17:19:32.678Z,5.47
2018-07-28T17:22:03.549Z,5.55
2018-07-28T17:24:34.952Z,5.70
2018-07-28T17:27:05.774Z,5.50
2018-07-28T17:29:36.675Z,5.67
2018-07-28T17:32:08.610Z,5.65
2018-07-28T17:34:38.605Z,5.45
2018-07-28T17:37:09.901Z,5.65
2018-07-28T17:39:40.759Z,5.40
2018-07-28T17:42:11.665Z,5.08
2018-07-28T17:44:42.713Z,5.55
2018-07-28T17:47:13.941Z,5.78
2018-07-28T17:49:44.736Z,5.70
2018-07-28T17:52:15.648Z,5.40
2018-07-28T17:54:46.548Z,5.33
2018-07-28T17:57:18.854Z,5.67
2018-07-28T17:59:48.913Z,5.37
2018-07-28T18:02:19.770Z,5.87
2018-07-28T18:04:50.635Z,5.67
2018-07-28T18:07:22.165Z,5.58
2018-07-28T18:09:52.951Z,6.12
2018-07-28T18:12:23.773Z,5.70
2018-07-28T18:14:54.600Z,6.28
2018-07-28T18:17:25.461Z,5.92
2018-07-28T18:19:56.893Z,6.38
2018-07-28T18:22:27.728Z,5.92
2018-07-28T18:25:06.552Z,6.80
2018-07-28T18:27:36.345Z,6.57
2018-07-28T18:30:06.500Z,6.47
2018-07-28T18:32:36.287Z,7.73
2018-07-28T18:35:06.977Z,7.10
2018-07-28T18:37:37.716Z,8.03
2018-07-28T18:40:07.935Z,8.80
2018-07-28T18:42:37.824Z,10.10
2018-07-28T18:45:07.925Z,12.00
2018-07-28T18:47:37.945Z,14.27
2018-07-28T18:50:08.848Z,11.73
2018-07-28T18:52:39.734Z,11.70
2018-07-28T18:55:11.132Z,13.08
2018-07-28T18:57:41.960Z,13.15
2018-07-28T19:00:13.276Z,12.35
2018-07-28T19:02:44.972Z,11.88
2018-07-28T19:05:14.973Z,13.13
2018-07-28T19:07:45.929Z,14.00
2018-07-28T19:10:18.055Z,10.28
2018-07-28T19:12:52.993Z,9.17
2018-07-28T19:15:22.886Z,10.10
2018-07-28T19:18:57.266Z,9.70
2018-07-28T19:21:27.271Z,13.90
2018-07-28T19:24:01.424Z,14.63
2018-07-28T19:26:32.035Z,14.47
2018-07-28T19:29:06.958Z,13.07
2018-07-28T19:31:37.130Z,26.07
2018-07-28T19:34:07.084Z,35.67
2018-07-28T19:36:42.161Z,59.90
2018-07-28T19:39:13.183Z,51.13
2018-07-28T19:41:47.949Z,50.63
2018-07-28T19:44:18.137Z,72.47
2018-07-28T19:46:48.125Z,67.70
2018-07-28T19:49:18.354Z,56.07
2018-07-28T19:51:48.281Z,57.27
2018-07-28T19:54:18.196Z,57.83
2018-07-28T19:56:48.379Z,57.83
2018-07-28T19:59:18.405Z,57.57
2018-07-28T20:01:48.481Z,46.93
2018-07-28T20:04:18.472Z,37.07
2018-07-28T20:06:48.504Z,27.90
2018-07-28T20:09:18.974Z,27.20
2018-07-28T20:11:49.003Z,27.60
2018-07-28T20:14:18.864Z,20.93
2018-07-28T20:16:49.062Z,17.77
2018-07-28T20:19:18.984Z,17.43
2018-07-28T20:21:49.401Z,16.27
2018-07-28T20:24:19.238Z,15.50
2018-07-28T20:26:49.134Z,14.87
2018-07-28T20:29:19.149Z,18.77
2018-07-28T20:31:49.112Z,30.07
2018-07-28T20:34:19.085Z,36.73
2018-07-28T20:36:49.032Z,40.90
2018-07-28T20:39:18.979Z,31.70
2018-07-28T20:41:49.001Z,23.50
2018-07-28T20:44:19.061Z,20.30
2018-07-28T20:46:48.975Z,18.73
2018-07-28T20:49:18.898Z,17.30
2018-07-28T20:51:48.867Z,18.33
2018-07-28T20:54:19.010Z,17.57
2018-07-28T20:56:48.873Z,20.30
2018-07-28T20:59:18.925Z,19.67
2018-07-28T21:01:49.054Z,20.27
2018-07-28T21:04:19.078Z,21.07
2018-07-28T21:06:49.113Z,22.40
2018-07-28T21:09:19.042Z,23.37
2018-07-28T21:11:49.183Z,23.47
2018-07-28T21:14:19.227Z,23.33
2018-07-28T21:16:49.313Z,23.33
2018-07-28T21:19:19.104Z,25.77
2018-07-28T21:21:49.004Z,24.57
2018-07-28T21:24:19.207Z,23.70
2018-07-28T21:26:49.219Z,23.40
2018-07-28T21:29:19.323Z,24.77
2018-07-28T21:31:49.101Z,23.30
2018-07-28T21:34:19.333Z,21.00
2018-07-28T21:36:49.211Z,21.30
2018-07-28T21:39:19.706Z,20.40
2018-07-28T21:41:49.981Z,20.13
2018-07-28T21:44:20.284Z,17.57
2018-07-28T21:46:50.120Z,17.13
2018-07-28T21:49:20.142Z,16.83
2018-07-28T21:51:50.109Z,18.70
2018-07-28T21:54:20.152Z,20.47
2018-07-28T21:56:50.027Z,19.50
2018-07-28T21:59:20.070Z,21.17
2018-07-28T22:01:50.027Z,22.07
2018-07-28T22:04:25.187Z,27.87
2018-07-28T22:06:55.201Z,27.17
2018-07-28T22:09:25.407Z,26.50
2018-07-28T22:11:55.483Z,27.10
2018-07-28T22:14:25.527Z,23.57
2018-07-28T22:16:55.825Z,24.18
2018-07-28T22:19:25.955Z,23.67
2018-07-28T22:21:55.950Z,23.77
2018-07-28T22:24:25.997Z,22.63
2018-07-28T22:26:55.856Z,21.83
2018-07-28T22:29:25.891Z,19.53
2018-07-28T22:31:55.812Z,19.87
2018-07-28T22:34:25.905Z,19.27
2018-07-28T22:36:55.985Z,18.73
2018-07-28T22:39:25.960Z,18.00
2018-07-28T22:41:55.800Z,18.43
2018-07-28T22:44:25.913Z,19.57
2018-07-28T22:46:56.055Z,18.47
2018-07-28T22:49:27.020Z,18.37
2018-07-28T22:51:57.297Z,18.23
2018-07-28T22:54:27.748Z,17.87
2018-07-28T22:56:57.846Z,17.37
2018-07-28T22:59:28.026Z,17.20
2018-07-28T23:01:57.960Z,16.93
2018-07-28T23:04:27.840Z,16.67
2018-07-28T23:06:58.235Z,15.50
2018-07-28T23:09:28.642Z,17.15
2018-07-28T23:11:58.571Z,16.17
2018-07-28T23:14:28.907Z,17.60
2018-07-28T23:16:58.767Z,17.50
2018-07-28T23:19:28.665Z,17.40
2018-07-28T23:21:58.507Z,17.03
2018-07-28T23:24:28.467Z,16.73
2018-07-28T23:26:58.416Z,17.67
2018-07-28T23:29:28.458Z,17.47
2018-07-28T23:31:58.368Z,16.37
2018-07-28T23:34:29.325Z,15.90
2018-07-28T23:37:00.042Z,15.83
2018-07-28T23:39:33.472Z,15.84
2018-07-28T23:42:03.849Z,14.43
2018-07-28T23:44:33.796Z,15.25
2018-07-28T23:47:03.720Z,14.87
2018-07-28T23:49:34.760Z,14.35
2018-07-28T23:52:05.737Z,14.58
2018-07-28T23:54:36.714Z,14.83
2018-07-28T23:57:07.768Z,15.15
2018-07-28T23:59:38.769Z,15.20
